createdAt,value
2023-03-26T00:16:00.217Z,6.00
2023-03-26T00:46:03.256Z,9.10
2023-03-26T01:16:07.911Z,7.45
2023-03-26T01:46:10.879Z,4.37
2023-03-26T02:16:14.561Z,4.43
2023-03-26T02:46:17.624Z,4.65
2023-03-26T03:16:21.807Z,3.17
2023-03-26T03:46:24.817Z,2.73
2023-03-26T04:16:28.559Z,4.95
2023-03-26T04:46:31.607Z,4.37
2023-03-26T05:16:34.940Z,4.17
2023-03-26T05:46:37.914Z,2.57
2023-03-26T06:16:41.974Z,3.10
2023-03-26T06:46:44.920Z,2.05
2023-03-26T07:16:49.151Z,2.30
2023-03-26T07:46:52.224Z,3.47
2023-03-26T08:16:55.568Z,3.00
2023-03-26T08:46:58.388Z,2.03
2023-03-26T09:17:02.461Z,1.80
2023-03-26T09:47:05.309Z,1.03
2023-03-26T10:17:08.847Z,3.90
2023-03-26T10:47:11.737Z,2.17
2023-03-26T11:17:40.477Z,2.15
2023-03-26T11:47:38.524Z,1.60
2023-03-26T12:17:42.236Z,2.93
2023-03-26T12:48:01.349Z,5.17
2023-03-26T13:18:07.800Z,5.00
2023-03-26T13:48:10.713Z,4.85
2023-03-26T14:18:14.852Z,1.45
2023-03-26T14:48:17.981Z,2.57
2023-03-26T15:18:22.255Z,4.07
2023-03-26T15:48:25.125Z,3.53
2023-03-26T16:18:29.498Z,3.78
2023-03-26T16:48:32.447Z,3.28
2023-03-26T17:18:36.557Z,5.37
2023-03-26T17:48:39.460Z,4.90
2023-03-26T18:18:43.484Z,7.27
2023-03-26T18:48:46.432Z,6.38
2023-03-26T19:18:50.385Z,9.93
2023-03-26T19:48:53.596Z,9.23
2023-03-26T20:18:58.204Z,11.00
2023-03-26T20:49:15.226Z,7.77
2023-03-26T21:19:18.609Z,13.47
2023-03-26T21:49:21.490Z,11.50
2023-03-26T22:19:25.047Z,12.10
2023-03-26T22:49:28.034Z,14.30
2023-03-26T23:19:31.624Z,10.70
2023-03-26T23:49:34.466Z,15.35
